sensor_id;sensor_type;location;lat;lon;timestamp;P1;durP1;ratioP1;P2;durP2;ratioP2
28174;SDS011;59417;44.788;10.334;2023-09-30T00:00:52;9.95;;;7.65;;
28174;SDS011;59417;44.788;10.334;2023-09-30T00:03:18;14.98;;;8.95;;
28174;SDS011;59417;44.788;10.334;2023-09-30T00:05:53;12.98;;;8.60;;
28174;SDS011;59417;44.788;10.334;2023-09-30T00:08:19;9.60;;;8.23;;
28174;SDS011;59417;44.788;10.334;2023-09-30T00:10:49;11.63;;;8.27;;
28174;SDS011;59417;44.788;10.334;2023-09-30T00:13:15;10.60;;;8.32;;
28174;SDS011;59417;44.788;10.334;2023-09-30T00:15:44;10.90;;;8.70;;
28174;SDS011;59417;44.788;10.334;2023-09-30T00:18:12;12.80;;;7.47;;
28174;SDS011;59417;44.788;10.334;2023-09-30T00:20:39;9.32;;;7.72;;
28174;SDS011;59417;44.788;10.334;2023-09-30T00:23:05;11.18;;;7.95;;
28174;SDS011;59417;44.788;10.334;2023-09-30T00:25:32;10.50;;;8.00;;
28174;SDS011;59417;44.788;10.334;2023-09-30T00:27:58;10.55;;;8.50;;
28174;SDS011;59417;44.788;10.334;2023-09-30T00:30:26;14.07;;;8.73;;
28174;SDS011;59417;44.788;10.334;2023-09-30T00:32:52;12.25;;;8.05;;
28174;SDS011;59417;44.788;10.334;2023-09-30T00:35:18;10.02;;;8.70;;
28174;SDS011;59417;44.788;10.334;2023-09-30T00:37:43;13.40;;;7.93;;
28174;SDS011;59417;44.788;10.334;2023-09-30T00:40:09;10.73;;;7.63;;
28174;SDS011;59417;44.788;10.334;2023-09-30T00:42:37;9.25;;;7.30;;
28174;SDS011;59417;44.788;10.334;2023-09-30T00:45:04;10.95;;;7.30;;
28174;SDS011;59417;44.788;10.334;2023-09-30T00:47:37;11.25;;;7.13;;
28174;SDS011;59417;44.788;10.334;2023-09-30T00:50:04;11.65;;;7.60;;
28174;SDS011;59417;44.788;10.334;2023-09-30T00:52:32;13.32;;;8.05;;
28174;SDS011;59417;44.788;10.334;2023-09-30T00:54:59;13.73;;;8.05;;
28174;SDS011;59417;44.788;10.334;2023-09-30T00:57:26;15.82;;;8.85;;
28174;SDS011;59417;44.788;10.334;2023-09-30T00:59:53;11.10;;;8.38;;
28174;SDS011;59417;44.788;10.334;2023-09-30T01:02:19;14.48;;;8.52;;
28174;SDS011;59417;44.788;10.334;2023-09-30T01:04:45;13.00;;;8.40;;
28174;SDS011;59417;44.788;10.334;2023-09-30T01:07:12;11.35;;;7.97;;
28174;SDS011;59417;44.788;10.334;2023-09-30T01:09:38;12.23;;;8.65;;
28174;SDS011;59417;44.788;10.334;2023-09-30T01:12:04;11.52;;;8.10;;
28174;SDS011;59417;44.788;10.334;2023-09-30T01:14:31;10.07;;;8.27;;
28174;SDS011;59417;44.788;10.334;2023-09-30T01:17:00;10.77;;;8.88;;
28174;SDS011;59417;44.788;10.334;2023-09-30T01:19:26;9.77;;;8.43;;
28174;SDS011;59417;44.788;10.334;2023-09-30T01:21:56;11.73;;;9.15;;
28174;SDS011;59417;44.788;10.334;2023-09-30T01:24:24;12.10;;;8.30;;
28174;SDS011;59417;44.788;10.334;2023-09-30T01:26:54;11.65;;;8.68;;
28174;SDS011;59417;44.788;10.334;2023-09-30T01:29:20;10.10;;;9.05;;
28174;SDS011;59417;44.788;10.334;2023-09-30T01:31:47;10.77;;;9.20;;
28174;SDS011;59417;44.788;10.334;2023-09-30T01:34:15;13.55;;;9.32;;
28174;SDS011;59417;44.788;10.334;2023-09-30T01:36:42;14.15;;;9.70;;
28174;SDS011;59417;44.788;10.334;2023-09-30T01:39:11;13.82;;;9.20;;
28174;SDS011;59417;44.788;10.334;2023-09-30T01:41:37;12.38;;;9.73;;
28174;SDS011;59417;44.788;10.334;2023-09-30T01:44:06;17.83;;;9.70;;
28174;SDS011;59417;44.788;10.334;2023-09-30T01:46:35;15.57;;;9.25;;
28174;SDS011;59417;44.788;10.334;2023-09-30T01:49:01;13.77;;;9.80;;
28174;SDS011;59417;44.788;10.334;2023-09-30T01:51:29;12.95;;;9.73;;
28174;SDS011;59417;44.788;10.334;2023-09-30T01:53:57;17.00;;;9.38;;
28174;SDS011;59417;44.788;10.334;2023-09-30T01:56:23;12.73;;;9.05;;
28174;SDS011;59417;44.788;10.334;2023-09-30T01:58:48;14.63;;;10.00;;
28174;SDS011;59417;44.788;10.334;2023-09-30T02:01:14;15.57;;;9.73;;
28174;SDS011;59417;44.788;10.334;2023-09-30T02:03:40;10.68;;;8.80;;
28174;SDS011;59417;44.788;10.334;2023-09-30T02:06:07;12.20;;;8.38;;
28174;SDS011;59417;44.788;10.334;2023-09-30T02:08:33;9.93;;;8.30;;
28174;SDS011;59417;44.788;10.334;2023-09-30T02:11:02;11.90;;;8.45;;
28174;SDS011;59417;44.788;10.334;2023-09-30T02:13:32;10.82;;;7.95;;
28174;SDS011;59417;44.788;10.334;2023-09-30T02:16:00;13.80;;;8.52;;
28174;SDS011;59417;44.788;10.334;2023-09-30T02:18:29;11.10;;;7.30;;
28174;SDS011;59417;44.788;10.334;2023-09-30T02:20:57;16.92;;;8.40;;
28174;SDS011;59417;44.788;10.334;2023-09-30T02:23:25;11.02;;;8.23;;
28174;SDS011;59417;44.788;10.334;2023-09-30T02:25:50;12.05;;;7.95;;
28174;SDS011;59417;44.788;10.334;2023-09-30T02:28:16;13.38;;;7.57;;
28174;SDS011;59417;44.788;10.334;2023-09-30T02:30:42;14.63;;;8.05;;
28174;SDS011;59417;44.788;10.334;2023-09-30T02:33:08;9.32;;;7.88;;
28174;SDS011;59417;44.788;10.334;2023-09-30T02:35:33;10.32;;;8.10;;
28174;SDS011;59417;44.788;10.334;2023-09-30T02:37:59;9.27;;;8.18;;
28174;SDS011;59417;44.788;10.334;2023-09-30T02:40:26;11.38;;;8.38;;
28174;SDS011;59417;44.788;10.334;2023-09-30T02:42:52;13.07;;;7.63;;
28174;SDS011;59417;44.788;10.334;2023-09-30T02:45:18;12.32;;;8.18;;
28174;SDS011;59417;44.788;10.334;2023-09-30T02:47:44;12.57;;;8.70;;
28174;SDS011;59417;44.788;10.334;2023-09-30T02:50:10;15.85;;;8.00;;
28174;SDS011;59417;44.788;10.334;2023-09-30T02:52:42;12.10;;;7.78;;
28174;SDS011;59417;44.788;10.334;2023-09-30T02:55:11;9.98;;;8.02;;
28174;SDS011;59417;44.788;10.334;2023-09-30T02:57:39;13.98;;;8.07;;
28174;SDS011;59417;44.788;10.334;2023-09-30T03:00:05;10.38;;;8.02;;
28174;SDS011;59417;44.788;10.334;2023-09-30T03:02:52;8.32;;;7.13;;
28174;SDS011;59417;44.788;10.334;2023-09-30T03:05:19;11.23;;;8.18;;
28174;SDS011;59417;44.788;10.334;2023-09-30T03:07:45;12.93;;;8.10;;
28174;SDS011;59417;44.788;10.334;2023-09-30T03:10:11;10.05;;;6.75;;
28174;SDS011;59417;44.788;10.334;2023-09-30T03:12:39;13.02;;;7.53;;
28174;SDS011;59417;44.788;10.334;2023-09-30T03:15:08;11.15;;;7.45;;
28174;SDS011;59417;44.788;10.334;2023-09-30T03:17:34;11.45;;;7.60;;
28174;SDS011;59417;44.788;10.334;2023-09-30T03:20:01;13.75;;;8.07;;
28174;SDS011;59417;44.788;10.334;2023-09-30T03:22:28;10.93;;;7.97;;
28174;SDS011;59417;44.788;10.334;2023-09-30T03:24:54;9.70;;;7.65;;
28174;SDS011;59417;44.788;10.334;2023-09-30T03:27:22;8.68;;;7.45;;
28174;SDS011;59417;44.788;10.334;2023-09-30T03:29:47;11.02;;;7.97;;
28174;SDS011;59417;44.788;10.334;2023-09-30T03:32:14;10.00;;;7.80;;
28174;SDS011;59417;44.788;10.334;2023-09-30T03:34:45;9.68;;;8.15;;
28174;SDS011;59417;44.788;10.334;2023-09-30T03:37:17;11.25;;;8.05;;
28174;SDS011;59417;44.788;10.334;2023-09-30T03:39:53;11.07;;;7.97;;
28174;SDS011;59417;44.788;10.334;2023-09-30T03:42:22;15.40;;;8.27;;
28174;SDS011;59417;44.788;10.334;2023-09-30T03:44:48;11.50;;;8.02;;
28174;SDS011;59417;44.788;10.334;2023-09-30T03:47:14;11.73;;;8.07;;
28174;SDS011;59417;44.788;10.334;2023-09-30T03:49:41;8.77;;;7.85;;
28174;SDS011;59417;44.788;10.334;2023-09-30T03:52:08;13.30;;;8.00;;
28174;SDS011;59417;44.788;10.334;2023-09-30T03:54:35;9.10;;;7.95;;
28174;SDS011;59417;44.788;10.334;2023-09-30T03:57:01;12.00;;;8.30;;
28174;SDS011;59417;44.788;10.334;2023-09-30T03:59:28;9.90;;;7.68;;
28174;SDS011;59417;44.788;10.334;2023-09-30T04:01:54;11.75;;;7.10;;
28174;SDS011;59417;44.788;10.334;2023-09-30T04:04:20;14.73;;;8.98;;
28174;SDS011;59417;44.788;10.334;2023-09-30T04:06:48;11.32;;;8.50;;
28174;SDS011;59417;44.788;10.334;2023-09-30T04:09:16;8.40;;;7.50;;
28174;SDS011;59417;44.788;10.334;2023-09-30T04:11:43;12.70;;;8.45;;
28174;SDS011;59417;44.788;10.334;2023-09-30T04:14:09;10.63;;;8.73;;
28174;SDS011;59417;44.788;10.334;2023-09-30T04:16:35;10.13;;;7.97;;
28174;SDS011;59417;44.788;10.334;2023-09-30T04:19:02;10.75;;;8.95;;
28174;SDS011;59417;44.788;10.334;2023-09-30T04:21:29;10.52;;;8.45;;
28174;SDS011;59417;44.788;10.334;2023-09-30T04:26:25;11.63;;;8.25;;
28174;SDS011;59417;44.788;10.334;2023-09-30T04:28:51;9.82;;;8.02;;
28174;SDS011;59417;44.788;10.334;2023-09-30T04:31:18;10.55;;;8.60;;
28174;SDS011;59417;44.788;10.334;2023-09-30T04:33:44;11.05;;;8.48;;
28174;SDS011;59417;44.788;10.334;2023-09-30T04:36:10;11.80;;;8.05;;
28174;SDS011;59417;44.788;10.334;2023-09-30T04:38:36;10.25;;;8.80;;
28174;SDS011;59417;44.788;10.334;2023-09-30T04:41:11;13.07;;;8.90;;
28174;SDS011;59417;44.788;10.334;2023-09-30T04:43:37;10.93;;;8.48;;
28174;SDS011;59417;44.788;10.334;2023-09-30T04:46:05;11.32;;;8.55;;
28174;SDS011;59417;44.788;10.334;2023-09-30T04:48:34;11.88;;;8.63;;
28174;SDS011;59417;44.788;10.334;2023-09-30T04:51:00;9.90;;;8.25;;
28174;SDS011;59417;44.788;10.334;2023-09-30T04:55:55;11.63;;;8.63;;
28174;SDS011;59417;44.788;10.334;2023-09-30T04:58:24;10.90;;;8.48;;
28174;SDS011;59417;44.788;10.334;2023-09-30T05:00:54;12.88;;;8.45;;
28174;SDS011;59417;44.788;10.334;2023-09-30T05:03:20;16.42;;;9.70;;
28174;SDS011;59417;44.788;10.334;2023-09-30T05:05:46;13.52;;;7.95;;
28174;SDS011;59417;44.788;10.334;2023-09-30T05:08:12;10.90;;;9.05;;
28174;SDS011;59417;44.788;10.334;2023-09-30T05:10:41;11.77;;;9.00;;
28174;SDS011;59417;44.788;10.334;2023-09-30T05:13:16;9.73;;;8.75;;
28174;SDS011;59417;44.788;10.334;2023-09-30T05:15:42;14.02;;;8.98;;
28174;SDS011;59417;44.788;10.334;2023-09-30T05:18:09;9.57;;;8.38;;
28174;SDS011;59417;44.788;10.334;2023-09-30T05:20:34;15.60;;;8.90;;
28174;SDS011;59417;44.788;10.334;2023-09-30T05:23:04;11.40;;;8.55;;
28174;SDS011;59417;44.788;10.334;2023-09-30T05:25:32;8.50;;;7.70;;
28174;SDS011;59417;44.788;10.334;2023-09-30T05:28:02;11.98;;;9.23;;
28174;SDS011;59417;44.788;10.334;2023-09-30T05:30:29;13.80;;;8.98;;
28174;SDS011;59417;44.788;10.334;2023-09-30T05:32:55;13.35;;;8.95;;
28174;SDS011;59417;44.788;10.334;2023-09-30T05:35:21;14.50;;;8.70;;
28174;SDS011;59417;44.788;10.334;2023-09-30T05:37:51;14.80;;;8.70;;
28174;SDS011;59417;44.788;10.334;2023-09-30T05:40:18;10.80;;;8.93;;
28174;SDS011;59417;44.788;10.334;2023-09-30T05:42:50;10.10;;;8.77;;
28174;SDS011;59417;44.788;10.334;2023-09-30T05:45:21;11.52;;;8.75;;
28174;SDS011;59417;44.788;10.334;2023-09-30T05:47:49;9.75;;;7.75;;
28174;SDS011;59417;44.788;10.334;2023-09-30T05:50:17;9.45;;;8.48;;
28174;SDS011;59417;44.788;10.334;2023-09-30T05:52:49;8.38;;;7.55;;
28174;SDS011;59417;44.788;10.334;2023-09-30T05:55:19;9.63;;;7.93;;
28174;SDS011;59417;44.788;10.334;2023-09-30T05:57:49;12.07;;;8.35;;
28174;SDS011;59417;44.788;10.334;2023-09-30T06:00:15;9.57;;;8.50;;
28174;SDS011;59417;44.788;10.334;2023-09-30T06:02:49;8.80;;;7.35;;
28174;SDS011;59417;44.788;10.334;2023-09-30T06:05:16;10.40;;;7.97;;
28174;SDS011;59417;44.788;10.334;2023-09-30T06:07:47;14.20;;;7.97;;
28174;SDS011;59417;44.788;10.334;2023-09-30T06:10:12;11.73;;;8.17;;
28174;SDS011;59417;44.788;10.334;2023-09-30T06:12:46;13.70;;;8.45;;
28174;SDS011;59417;44.788;10.334;2023-09-30T06:15:16;14.93;;;8.63;;
28174;SDS011;59417;44.788;10.334;2023-09-30T06:17:49;11.65;;;7.47;;
28174;SDS011;59417;44.788;10.334;2023-09-30T06:20:17;8.48;;;7.55;;
28174;SDS011;59417;44.788;10.334;2023-09-30T06:22:47;12.85;;;7.68;;
28174;SDS011;59417;44.788;10.334;2023-09-30T06:25:19;12.63;;;8.10;;
28174;SDS011;59417;44.788;10.334;2023-09-30T06:27:47;9.55;;;7.97;;
28174;SDS011;59417;44.788;10.334;2023-09-30T06:30:17;11.50;;;7.78;;
28174;SDS011;59417;44.788;10.334;2023-09-30T06:32:47;11.43;;;7.63;;
28174;SDS011;59417;44.788;10.334;2023-09-30T06:35:13;11.30;;;8.10;;
28174;SDS011;59417;44.788;10.334;2023-09-30T06:37:40;14.55;;;8.52;;
28174;SDS011;59417;44.788;10.334;2023-09-30T06:40:06;11.63;;;7.78;;
28174;SDS011;59417;44.788;10.334;2023-09-30T06:42:34;9.20;;;7.93;;
28174;SDS011;59417;44.788;10.334;2023-09-30T06:45:05;11.40;;;8.00;;
28174;SDS011;59417;44.788;10.334;2023-09-30T06:47:32;13.23;;;8.25;;
28174;SDS011;59417;44.788;10.334;2023-09-30T06:52:37;15.10;;;8.60;;
28174;SDS011;59417;44.788;10.334;2023-09-30T06:55:05;10.93;;;8.05;;
28174;SDS011;59417;44.788;10.334;2023-09-30T06:57:35;10.52;;;8.20;;
28174;SDS011;59417;44.788;10.334;2023-09-30T07:00:06;21.58;;;8.02;;
28174;SDS011;59417;44.788;10.334;2023-09-30T07:02:37;11.30;;;8.18;;
28174;SDS011;59417;44.788;10.334;2023-09-30T07:05:14;9.77;;;7.50;;
28174;SDS011;59417;44.788;10.334;2023-09-30T07:07:41;12.35;;;7.70;;
28174;SDS011;59417;44.788;10.334;2023-09-30T07:10:10;10.10;;;7.45;;
28174;SDS011;59417;44.788;10.334;2023-09-30T07:12:37;14.48;;;7.63;;
28174;SDS011;59417;44.788;10.334;2023-09-30T07:15:03;14.52;;;8.43;;
28174;SDS011;59417;44.788;10.334;2023-09-30T07:17:35;13.02;;;7.43;;
28174;SDS011;59417;44.788;10.334;2023-09-30T07:20:02;8.63;;;7.38;;
28174;SDS011;59417;44.788;10.334;2023-09-30T07:22:30;10.15;;;8.23;;
28174;SDS011;59417;44.788;10.334;2023-09-30T07:24:56;13.20;;;8.52;;
28174;SDS011;59417;44.788;10.334;2023-09-30T07:27:23;13.63;;;8.02;;
28174;SDS011;59417;44.788;10.334;2023-09-30T07:29:51;14.07;;;7.88;;
28174;SDS011;59417;44.788;10.334;2023-09-30T07:32:17;11.32;;;8.25;;
28174;SDS011;59417;44.788;10.334;2023-09-30T07:34:44;14.07;;;8.40;;
28174;SDS011;59417;44.788;10.334;2023-09-30T07:37:12;13.40;;;7.70;;
28174;SDS011;59417;44.788;10.334;2023-09-30T07:39:48;15.25;;;8.50;;
28174;SDS011;59417;44.788;10.334;2023-09-30T07:42:18;13.48;;;8.00;;
28174;SDS011;59417;44.788;10.334;2023-09-30T07:44:44;11.05;;;7.93;;
28174;SDS011;59417;44.788;10.334;2023-09-30T07:47:09;13.10;;;8.85;;
28174;SDS011;59417;44.788;10.334;2023-09-30T07:49:37;12.38;;;8.68;;
28174;SDS011;59417;44.788;10.334;2023-09-30T07:52:03;14.05;;;8.60;;
28174;SDS011;59417;44.788;10.334;2023-09-30T07:54:30;11.55;;;9.25;;
28174;SDS011;59417;44.788;10.334;2023-09-30T07:56:56;14.65;;;9.88;;
28174;SDS011;59417;44.788;10.334;2023-09-30T07:59:23;15.85;;;8.60;;
28174;SDS011;59417;44.788;10.334;2023-09-30T08:01:50;12.52;;;8.57;;
28174;SDS011;59417;44.788;10.334;2023-09-30T08:04:21;15.57;;;8.77;;
28174;SDS011;59417;44.788;10.334;2023-09-30T08:06:54;15.27;;;10.25;;
28174;SDS011;59417;44.788;10.334;2023-09-30T08:09:23;15.52;;;9.85;;
28174;SDS011;59417;44.788;10.334;2023-09-30T08:11:52;13.68;;;8.90;;
28174;SDS011;59417;44.788;10.334;2023-09-30T08:14:19;13.93;;;8.10;;
28174;SDS011;59417;44.788;10.334;2023-09-30T08:16:47;13.88;;;9.15;;
28174;SDS011;59417;44.788;10.334;2023-09-30T08:19:14;15.43;;;8.90;;
28174;SDS011;59417;44.788;10.334;2023-09-30T08:21:40;14.45;;;9.50;;
28174;SDS011;59417;44.788;10.334;2023-09-30T08:24:06;16.45;;;9.32;;
28174;SDS011;59417;44.788;10.334;2023-09-30T08:26:34;14.20;;;9.70;;
28174;SDS011;59417;44.788;10.334;2023-09-30T08:29:01;14.60;;;8.45;;
28174;SDS011;59417;44.788;10.334;2023-09-30T08:31:29;12.48;;;9.65;;
28174;SDS011;59417;44.788;10.334;2023-09-30T08:33:57;11.43;;;8.60;;
28174;SDS011;59417;44.788;10.334;2023-09-30T08:36:23;12.73;;;8.70;;
28174;SDS011;59417;44.788;10.334;2023-09-30T08:38:50;15.68;;;9.88;;
28174;SDS011;59417;44.788;10.334;2023-09-30T08:41:24;14.80;;;9.88;;
28174;SDS011;59417;44.788;10.334;2023-09-30T08:44:00;16.05;;;11.13;;
28174;SDS011;59417;44.788;10.334;2023-09-30T08:46:31;23.58;;;11.13;;
28174;SDS011;59417;44.788;10.334;2023-09-30T08:49:02;13.30;;;10.25;;
28174;SDS011;59417;44.788;10.334;2023-09-30T08:51:34;14.45;;;10.40;;
28174;SDS011;59417;44.788;10.334;2023-09-30T08:54:01;15.25;;;10.40;;
28174;SDS011;59417;44.788;10.334;2023-09-30T08:56:29;13.18;;;10.02;;
28174;SDS011;59417;44.788;10.334;2023-09-30T08:58:58;19.88;;;13.98;;
28174;SDS011;59417;44.788;10.334;2023-09-30T09:01:29;16.85;;;11.98;;
28174;SDS011;59417;44.788;10.334;2023-09-30T09:03:58;20.73;;;15.13;;
28174;SDS011;59417;44.788;10.334;2023-09-30T09:06:27;21.13;;;14.25;;
28174;SDS011;59417;44.788;10.334;2023-09-30T09:08:59;21.73;;;15.32;;
28174;SDS011;59417;44.788;10.334;2023-09-30T09:11:47;25.10;;;15.95;;
28174;SDS011;59417;44.788;10.334;2023-09-30T09:14:14;22.75;;;15.75;;
28174;SDS011;59417;44.788;10.334;2023-09-30T09:16:53;21.42;;;14.57;;
28174;SDS011;59417;44.788;10.334;2023-09-30T09:19:20;33.13;;;18.88;;
28174;SDS011;59417;44.788;10.334;2023-09-30T09:21:57;26.73;;;16.77;;
28174;SDS011;59417;44.788;10.334;2023-09-30T09:24:31;24.52;;;16.90;;
28174;SDS011;59417;44.788;10.334;2023-09-30T09:27:11;23.30;;;15.95;;
28174;SDS011;59417;44.788;10.334;2023-09-30T09:29:42;23.35;;;16.67;;
28174;SDS011;59417;44.788;10.334;2023-09-30T09:34:42;25.25;;;16.58;;
28174;SDS011;59417;44.788;10.334;2023-09-30T09:37:16;20.23;;;16.38;;
28174;SDS011;59417;44.788;10.334;2023-09-30T09:39:54;26.52;;;15.02;;
28174;SDS011;59417;44.788;10.334;2023-09-30T09:42:28;20.92;;;15.32;;
28174;SDS011;59417;44.788;10.334;2023-09-30T09:44:56;26.10;;;20.25;;
28174;SDS011;59417;44.788;10.334;2023-09-30T09:47:28;29.20;;;19.80;;
28174;SDS011;59417;44.788;10.334;2023-09-30T09:49:57;35.25;;;21.13;;
28174;SDS011;59417;44.788;10.334;2023-09-30T09:52:27;31.65;;;20.65;;
28174;SDS011;59417;44.788;10.334;2023-09-30T09:54:54;24.65;;;17.20;;
28174;SDS011;59417;44.788;10.334;2023-09-30T09:57:20;24.60;;;18.35;;
28174;SDS011;59417;44.788;10.334;2023-09-30T09:59:50;24.10;;;18.90;;
28174;SDS011;59417;44.788;10.334;2023-09-30T10:02:18;32.15;;;18.98;;
28174;SDS011;59417;44.788;10.334;2023-09-30T10:04:45;25.90;;;17.40;;
28174;SDS011;59417;44.788;10.334;2023-09-30T10:07:14;27.05;;;19.33;;
28174;SDS011;59417;44.788;10.334;2023-09-30T10:09:47;24.30;;;18.35;;
28174;SDS011;59417;44.788;10.334;2023-09-30T10:12:16;20.63;;;17.83;;
28174;SDS011;59417;44.788;10.334;2023-09-30T10:14:43;22.73;;;16.30;;
28174;SDS011;59417;44.788;10.334;2023-09-30T10:17:09;31.50;;;18.13;;
28174;SDS011;59417;44.788;10.334;2023-09-30T10:19:35;25.30;;;15.27;;
28174;SDS011;59417;44.788;10.334;2023-09-30T10:24:49;21.75;;;14.40;;
28174;SDS011;59417;44.788;10.334;2023-09-30T10:30:05;26.80;;;19.00;;
28174;SDS011;59417;44.788;10.334;2023-09-30T10:35:17;25.33;;;14.90;;
28174;SDS011;59417;44.788;10.334;2023-09-30T10:37:44;20.50;;;15.90;;
28174;SDS011;59417;44.788;10.334;2023-09-30T10:40:29;20.35;;;12.90;;
28174;SDS011;59417;44.788;10.334;2023-09-30T10:42:56;19.98;;;14.63;;
28174;SDS011;59417;44.788;10.334;2023-09-30T10:48:31;24.73;;;18.10;;
28174;SDS011;59417;44.788;10.334;2023-09-30T10:50:58;25.38;;;16.15;;
28174;SDS011;59417;44.788;10.334;2023-09-30T10:53:28;25.80;;;17.98;;
28174;SDS011;59417;44.788;10.334;2023-09-30T10:55:54;18.90;;;14.43;;
28174;SDS011;59417;44.788;10.334;2023-09-30T10:58:38;22.38;;;16.00;;
28174;SDS011;59417;44.788;10.334;2023-09-30T11:01:12;18.85;;;14.13;;
28174;SDS011;59417;44.788;10.334;2023-09-30T11:03:42;24.70;;;14.75;;
28174;SDS011;59417;44.788;10.334;2023-09-30T11:06:14;18.00;;;14.98;;
28174;SDS011;59417;44.788;10.334;2023-09-30T11:11:51;19.88;;;12.45;;
28174;SDS011;59417;44.788;10.334;2023-09-30T11:15:20;20.45;;;12.88;;
28174;SDS011;59417;44.788;10.334;2023-09-30T11:18:33;20.30;;;14.88;;
28174;SDS011;59417;44.788;10.334;2023-09-30T11:32:43;18.10;;;12.95;;
28174;SDS011;59417;44.788;10.334;2023-09-30T11:43:07;18.33;;;12.02;;
28174;SDS011;59417;44.788;10.334;2023-09-30T12:03:29;16.98;;;9.50;;
28174;SDS011;59417;44.788;10.334;2023-09-30T12:17:21;13.13;;;9.57;;
28174;SDS011;59417;44.788;10.334;2023-09-30T12:20:27;18.00;;;8.70;;
28174;SDS011;59417;44.788;10.334;2023-09-30T12:23:55;13.90;;;10.63;;
28174;SDS011;59417;44.788;10.334;2023-09-30T12:26:52;13.73;;;9.80;;
28174;SDS011;59417;44.788;10.334;2023-09-30T12:29:19;13.20;;;9.30;;
28174;SDS011;59417;44.788;10.334;2023-09-30T12:31:52;11.98;;;9.07;;
28174;SDS011;59417;44.788;10.334;2023-09-30T12:34:18;16.42;;;11.13;;
28174;SDS011;59417;44.788;10.334;2023-09-30T12:36:44;17.77;;;10.82;;
28174;SDS011;59417;44.788;10.334;2023-09-30T12:39:10;13.88;;;11.15;;
28174;SDS011;59417;44.788;10.334;2023-09-30T12:41:37;19.45;;;9.02;;
28174;SDS011;59417;44.788;10.334;2023-09-30T12:44:05;19.02;;;8.90;;
28174;SDS011;59417;44.788;10.334;2023-09-30T12:46:31;11.32;;;8.73;;
28174;SDS011;59417;44.788;10.334;2023-09-30T12:49:00;17.25;;;8.45;;
28174;SDS011;59417;44.788;10.334;2023-09-30T12:51:27;12.85;;;8.13;;
28174;SDS011;59417;44.788;10.334;2023-09-30T12:53:53;10.95;;;8.32;;
28174;SDS011;59417;44.788;10.334;2023-09-30T12:56:19;13.50;;;8.85;;
28174;SDS011;59417;44.788;10.334;2023-09-30T12:58:45;15.00;;;8.73;;
28174;SDS011;59417;44.788;10.334;2023-09-30T13:01:12;16.77;;;9.60;;
28174;SDS011;59417;44.788;10.334;2023-09-30T13:03:37;13.43;;;8.43;;
28174;SDS011;59417;44.788;10.334;2023-09-30T13:06:04;11.80;;;8.55;;
28174;SDS011;59417;44.788;10.334;2023-09-30T13:08:30;12.63;;;9.07;;
28174;SDS011;59417;44.788;10.334;2023-09-30T13:11:05;15.43;;;7.80;;
28174;SDS011;59417;44.788;10.334;2023-09-30T13:13:31;8.85;;;7.55;;
28174;SDS011;59417;44.788;10.334;2023-09-30T13:16:04;12.38;;;7.93;;
28174;SDS011;59417;44.788;10.334;2023-09-30T13:18:33;17.17;;;8.50;;
28174;SDS011;59417;44.788;10.334;2023-09-30T13:20:59;11.35;;;8.13;;
28174;SDS011;59417;44.788;10.334;2023-09-30T13:23:25;11.60;;;7.65;;
28174;SDS011;59417;44.788;10.334;2023-09-30T13:25:52;9.10;;;8.00;;
28174;SDS011;59417;44.788;10.334;2023-09-30T13:28:18;11.75;;;8.77;;
28174;SDS011;59417;44.788;10.334;2023-09-30T13:30:44;10.95;;;7.95;;
28174;SDS011;59417;44.788;10.334;2023-09-30T13:33:13;10.50;;;8.60;;
28174;SDS011;59417;44.788;10.334;2023-09-30T13:35:38;14.02;;;8.30;;
28174;SDS011;59417;44.788;10.334;2023-09-30T13:38:04;11.98;;;8.55;;
28174;SDS011;59417;44.788;10.334;2023-09-30T13:40:30;11.15;;;7.60;;
28174;SDS011;59417;44.788;10.334;2023-09-30T13:42:56;13.65;;;7.85;;
28174;SDS011;59417;44.788;10.334;2023-09-30T13:45:24;9.40;;;7.80;;
28174;SDS011;59417;44.788;10.334;2023-09-30T13:47:53;12.25;;;9.35;;
28174;SDS011;59417;44.788;10.334;2023-09-30T13:50:19;11.63;;;8.20;;
28174;SDS011;59417;44.788;10.334;2023-09-30T13:52:45;10.30;;;7.53;;
28174;SDS011;59417;44.788;10.334;2023-09-30T13:55:10;10.00;;;7.32;;
28174;SDS011;59417;44.788;10.334;2023-09-30T13:57:37;11.80;;;7.45;;
28174;SDS011;59417;44.788;10.334;2023-09-30T14:00:03;9.00;;;7.07;;
28174;SDS011;59417;44.788;10.334;2023-09-30T14:02:31;8.68;;;7.78;;
28174;SDS011;59417;44.788;10.334;2023-09-30T14:04:57;13.05;;;7.63;;
28174;SDS011;59417;44.788;10.334;2023-09-30T14:07:23;84.93;;;16.17;;
28174;SDS011;59417;44.788;10.334;2023-09-30T14:09:49;65.20;;;13.80;;
28174;SDS011;59417;44.788;10.334;2023-09-30T14:12:14;19.10;;;10.15;;
28174;SDS011;59417;44.788;10.334;2023-09-30T14:14:40;14.52;;;8.65;;
28174;SDS011;59417;44.788;10.334;2023-09-30T14:17:06;16.05;;;8.60;;
28174;SDS011;59417;44.788;10.334;2023-09-30T14:19:40;11.75;;;6.53;;
28174;SDS011;59417;44.788;10.334;2023-09-30T14:22:06;16.92;;;8.82;;
28174;SDS011;59417;44.788;10.334;2023-09-30T14:24:34;13.38;;;7.18;;
28174;SDS011;59417;44.788;10.334;2023-09-30T14:27:01;12.65;;;8.15;;
28174;SDS011;59417;44.788;10.334;2023-09-30T14:29:28;12.07;;;8.27;;
28174;SDS011;59417;44.788;10.334;2023-09-30T14:31:56;12.00;;;6.78;;
28174;SDS011;59417;44.788;10.334;2023-09-30T14:34:23;13.95;;;8.20;;
28174;SDS011;59417;44.788;10.334;2023-09-30T14:36:50;13.40;;;7.05;;
28174;SDS011;59417;44.788;10.334;2023-09-30T14:39:16;12.55;;;7.53;;
28174;SDS011;59417;44.788;10.334;2023-09-30T14:41:43;8.27;;;7.13;;
28174;SDS011;59417;44.788;10.334;2023-09-30T14:44:09;9.77;;;7.65;;
28174;SDS011;59417;44.788;10.334;2023-09-30T14:46:39;18.63;;;7.57;;
28174;SDS011;59417;44.788;10.334;2023-09-30T14:49:05;9.23;;;7.53;;
28174;SDS011;59417;44.788;10.334;2023-09-30T14:51:37;9.40;;;7.53;;
28174;SDS011;59417;44.788;10.334;2023-09-30T14:54:03;14.30;;;6.50;;
28174;SDS011;59417;44.788;10.334;2023-09-30T14:56:29;12.43;;;7.95;;
28174;SDS011;59417;44.788;10.334;2023-09-30T14:58:55;9.40;;;7.65;;
28174;SDS011;59417;44.788;10.334;2023-09-30T15:01:21;12.20;;;8.15;;
28174;SDS011;59417;44.788;10.334;2023-09-30T15:03:47;13.07;;;7.32;;
28174;SDS011;59417;44.788;10.334;2023-09-30T15:06:13;10.00;;;6.95;;
28174;SDS011;59417;44.788;10.334;2023-09-30T15:08:39;11.40;;;7.53;;
28174;SDS011;59417;44.788;10.334;2023-09-30T15:11:05;16.55;;;8.48;;
28174;SDS011;59417;44.788;10.334;2023-09-30T15:13:31;10.95;;;7.10;;
28174;SDS011;59417;44.788;10.334;2023-09-30T15:15:57;10.48;;;7.53;;
28174;SDS011;59417;44.788;10.334;2023-09-30T15:18:23;11.80;;;8.40;;
28174;SDS011;59417;44.788;10.334;2023-09-30T15:20:49;16.38;;;8.15;;
28174;SDS011;59417;44.788;10.334;2023-09-30T15:23:15;9.15;;;7.25;;
28174;SDS011;59417;44.788;10.334;2023-09-30T15:25:45;17.15;;;7.22;;
28174;SDS011;59417;44.788;10.334;2023-09-30T15:28:11;10.55;;;7.70;;
28174;SDS011;59417;44.788;10.334;2023-09-30T15:30:38;10.18;;;7.20;;
28174;SDS011;59417;44.788;10.334;2023-09-30T15:33:04;15.43;;;7.28;;
28174;SDS011;59417;44.788;10.334;2023-09-30T15:35:30;24.27;;;8.35;;
28174;SDS011;59417;44.788;10.334;2023-09-30T15:37:56;14.75;;;8.25;;
28174;SDS011;59417;44.788;10.334;2023-09-30T15:40:22;53.50;;;11.40;;
28174;SDS011;59417;44.788;10.334;2023-09-30T15:42:48;14.85;;;7.85;;